Time;durP1;ratioP1;P1;durP2;ratioP2;P2;SDS_P1;SDS_P2;PMS_P1;PMS_P2;Temp;Humidity;BMP_temperature;BMP_pressure;BME280_temperature;BME280_humidity;BME280_pressure;Samples;Min_cycle;Max_cycle;Signal;HPM_P1;HPM_P2
2024/02/28 00:00:44;;;;;;;;;;;;;;;15.94;48.45;101367.72;4959097;29;1100;-43
2024/02/28 00:03:10;;;;;;;;;;;;;;;15.73;49.12;101368.91;4958632;29;1145;-46
2024/02/28 00:05:35;;;;;;;;;;;;;;;15.49;49.53;101373.88;4958986;29;970;-47
2024/02/28 00:08:01;;;;;;;;;;;;;;;15.78;49.34;101368.66;4958643;29;1089;-47
2024/02/28 00:10:26;;;;;;;;;;;;;;;17.17;46.04;101367.25;4958734;29;1050;-43
2024/02/28 00:12:52;;;;;;;;;;;;;;;16.82;46.53;101369.44;4958320;29;1174;-45
2024/02/28 00:15:17;;;;;;;;;;;;;;;16.12;48.08;101368.44;4958615;29;1101;-46
2024/02/28 00:17:43;;;;;;;;;;;;;;;15.78;49.00;101360.72;4952860;29;1968;-45
2024/02/28 00:20:09;;;;;;;;;;;;;;;15.52;49.68;101368.38;4958281;29;1057;-46
2024/02/28 00:22:35;;;;;;;;;;;;;;;15.38;49.79;101364.75;4958946;29;1086;-44
2024/02/28 00:25:01;;;;;;;;;;;;;;;15.78;49.36;101360.72;4958105;29;1140;-46
2024/02/28 00:27:26;;;;;;;;;;;;;;;17.17;46.16;101367.25;4958453;29;1146;-44
2024/02/28 00:29:52;;;;;;;;;;;;;;;16.60;47.07;101365.47;4958303;29;902;-45
2024/02/28 00:32:17;;;;;;;;;;;;;;;16.00;48.59;101370.03;4957955;29;1220;-48
2024/02/28 00:34:44;;;;;;;;;;;;;;;15.70;49.18;101362.97;4957808;29;1113;-46
2024/02/28 00:37:09;;;;;;;;;;;;;;;15.49;49.75;101366.78;4957944;29;1914;-44
2024/02/28 00:39:34;;;;;;;;;;;;;;;15.27;50.16;101362.72;4958341;29;1061;-47
2024/02/28 00:42:00;;;;;;;;;;;;;;;16.70;47.16;101359.59;4957945;29;1058;-43
2024/02/28 00:44:25;;;;;;;;;;;;;;;17.15;45.84;101366.53;4958125;29;1054;-50
2024/02/28 00:46:51;;;;;;;;;;;;;;;16.20;47.77;101366.16;4957520;29;1224;-46
2024/02/28 00:49:16;;;;;;;;;;;;;;;15.82;49.09;101372.81;4945918;29;1189;-44
2024/02/28 00:51:42;;;;;;;;;;;;;;;15.57;49.56;101378.72;4945873;29;1169;-46
2024/02/28 00:54:08;;;;;;;;;;;;;;;15.36;49.85;101376.38;4952373;29;1043;-45
2024/02/28 00:56:33;;;;;;;;;;;;;;;15.58;50.01;101377.78;4957612;29;1973;-44
2024/02/28 00:58:59;;;;;;;;;;;;;;;17.02;46.19;101368.16;4945686;29;1185;-42
2024/02/28 01:01:24;;;;;;;;;;;;;;;16.60;46.80;101369.97;4958035;29;1109;-44
2024/02/28 01:03:50;;;;;;;;;;;;;;;15.94;48.68;101376.56;4957833;29;1073;-45
2024/02/28 01:06:16;;;;;;;;;;;;;;;15.64;49.14;101377.44;4945449;29;1268;-46
2024/02/28 01:08:42;;;;;;;;;;;;;;;15.37;49.72;101371.00;4952237;29;1158;-42
2024/02/28 01:11:07;;;;;;;;;;;;;;;15.90;48.90;101372.34;4951576;29;938;-45
2024/02/28 01:13:33;;;;;;;;;;;;;;;17.27;45.80;101373.69;4958012;29;1105;-42
2024/02/28 01:15:59;;;;;;;;;;;;;;;16.57;46.96;101367.47;4957641;29;1902;-43
2024/02/28 01:18:25;;;;;;;;;;;;;;;15.90;48.43;101367.91;4951125;29;1062;-47
2024/02/28 01:20:52;;;;;;;;;;;;;;;15.66;49.30;101373.72;4951355;29;1141;-41
2024/02/28 01:23:17;;;;;;;;;;;;;;;15.35;49.67;101370.22;4957817;29;1006;-46
2024/02/28 01:25:43;;;;;;;;;;;;;;;15.28;50.05;101366.25;4957323;29;1094;-46
2024/02/28 01:28:08;;;;;;;;;;;;;;;16.56;47.32;101377.25;4959238;28;1133;-45
2024/02/28 01:30:34;;;;;;;;;;;;;;;17.30;45.46;101356.69;4959987;29;918;-46
2024/02/28 01:32:59;;;;;;;;;;;;;;;16.28;47.77;101365.72;4961286;29;1328;-44
2024/02/28 01:35:25;;;;;;;;;;;;;;;15.86;48.58;101369.06;4961410;28;1089;-48
2024/02/28 01:37:50;;;;;;;;;;;;;;;15.50;49.81;101364.97;4960804;29;1906;-47
2024/02/28 01:40:16;;;;;;;;;;;;;;;15.41;49.56;101366.38;4961393;29;1043;-42
2024/02/28 01:42:42;;;;;;;;;;;;;;;16.45;47.62;101366.47;4953055;29;1041;-47
2024/02/28 01:45:09;;;;;;;;;;;;;;;17.35;45.38;101360.72;4961311;29;1121;-48
2024/02/28 01:47:34;;;;;;;;;;;;;;;16.37;47.58;101370.44;4941615;29;1169;-44
2024/02/28 01:50:00;;;;;;;;;;;;;;;15.88;48.47;101379.56;4954632;29;1066;-47
2024/02/28 01:52:25;;;;;;;;;;;;;;;15.61;49.12;101377.63;4954382;29;1072;-46
2024/02/28 01:54:51;;;;;;;;;;;;;;;15.41;49.62;101377.81;4953211;29;1276;-48
2024/02/28 01:57:16;;;;;;;;;;;;;;;15.29;50.02;101373.25;4961088;29;1914;-46
2024/02/28 01:59:43;;;;;;;;;;;;;;;16.83;46.84;101371.13;4944381;29;1145;-46
2024/02/28 02:02:08;;;;;;;;;;;;;;;16.71;46.68;101377.22;4959509;29;1462;-46
2024/02/28 02:04:34;;;;;;;;;;;;;;;16.05;48.29;101377.75;4960960;29;1242;-44
2024/02/28 02:06:59;;;;;;;;;;;;;;;15.62;49.44;101374.88;4960426;29;1090;-47
2024/02/28 02:09:25;;;;;;;;;;;;;;;15.48;49.69;101370.34;4948956;29;1142;-49
2024/02/28 02:11:51;;;;;;;;;;;;;;;16.26;47.93;101363.16;4960003;29;1149;-45
2024/02/28 02:14:16;;;;;;;;;;;;;;;17.36;45.40;101370.44;4960718;28;1081;-45
2024/02/28 02:16:41;;;;;;;;;;;;;;;16.36;47.36;101375.84;4960441;29;1902;-46
2024/02/28 02:19:08;;;;;;;;;;;;;;;15.90;48.66;101378.53;4957096;29;890;-45
2024/02/28 02:21:54;;;;;;;;;;;;;;;15.61;49.28;101381.13;4960803;29;1137;-46
2024/02/28 02:24:19;;;;;;;;;;;;;;;15.69;49.43;101385.09;4960491;29;1762;-45
2024/02/28 02:26:46;;;;;;;;;;;;;;;17.19;45.76;101374.19;4960350;29;1093;-46
2024/02/28 02:29:12;;;;;;;;;;;;;;;16.75;46.59;101379.59;4960013;29;1120;-45
2024/02/28 02:31:37;;;;;;;;;;;;;;;16.06;48.27;101388.25;4957562;29;911;-43
2024/02/28 02:34:03;;;;;;;;;;;;;;;15.75;48.88;101385.59;4960589;29;1046;-47
2024/02/28 02:36:28;;;;;;;;;;;;;;;15.48;49.36;101385.44;4960562;29;1902;-46
2024/02/28 02:38:54;;;;;;;;;;;;;;;15.29;49.57;101383.84;4959663;28;999;-46
2024/02/28 02:41:19;;;;;;;;;;;;;;;16.22;48.28;101393.47;4959532;29;1046;-44
2024/02/28 02:43:45;;;;;;;;;;;;;;;17.28;45.44;101388.69;4959893;29;899;-45
2024/02/28 02:46:10;;;;;;;;;;;;;;;16.28;47.70;101395.75;4960689;29;1061;-45
2024/02/28 02:48:36;;;;;;;;;;;;;;;15.83;48.77;101392.25;4960392;29;1152;-44
2024/02/28 02:51:01;;;;;;;;;;;;;;;15.55;49.13;101406.19;4960032;28;1152;-44
2024/02/28 02:53:27;;;;;;;;;;;;;;;15.37;49.43;101394.00;4959550;29;1065;-49
2024/02/28 02:55:53;;;;;;;;;;;;;;;16.13;48.44;101404.66;4949096;29;900;-47
2024/02/28 02:58:19;;;;;;;;;;;;;;;17.33;45.40;101401.69;4960028;29;1915;-44
2024/02/28 03:00:44;;;;;;;;;;;;;;;16.76;46.36;101399.06;4960078;29;1042;-46
2024/02/28 03:03:10;;;;;;;;;;;;;;;16.08;48.13;101399.63;4960017;29;1184;-42
2024/02/28 03:05:35;;;;;;;;;;;;;;;15.72;48.74;101406.16;4960345;29;1030;-46
2024/02/28 03:08:01;;;;;;;;;;;;;;;15.51;49.23;101404.69;4960377;29;906;-44
2024/02/28 03:10:26;;;;;;;;;;;;;;;15.30;49.79;101410.25;4959209;29;1062;-46
2024/02/28 03:12:52;;;;;;;;;;;;;;;16.47;47.65;101404.38;4959889;29;1176;-45
2024/02/28 03:15:17;;;;;;;;;;;;;;;17.05;45.59;101406.13;4959726;29;1073;-46
2024/02/28 03:17:43;;;;;;;;;;;;;;;16.06;48.12;101404.19;4959505;29;1911;-45
2024/02/28 03:20:09;;;;;;;;;;;;;;;15.73;48.69;101405.22;4946878;29;1055;-46
2024/02/28 03:22:34;;;;;;;;;;;;;;;15.48;49.51;101410.13;4959767;29;1155;-47
2024/02/28 03:25:00;;;;;;;;;;;;;;;15.35;49.46;101409.16;4946688;29;1030;-47
2024/02/28 03:27:25;;;;;;;;;;;;;;;15.65;49.38;101408.28;4959457;29;1201;-44
2024/02/28 03:29:51;;;;;;;;;;;;;;;17.05;46.05;101406.13;4946526;29;1142;-46
2024/02/28 03:32:16;;;;;;;;;;;;;;;17.12;45.65;101412.75;4959299;28;1061;-49
2024/02/28 03:34:42;;;;;;;;;;;;;;;16.23;47.66;101419.06;4959330;29;972;-47
2024/02/28 03:37:08;;;;;;;;;;;;;;;15.81;48.56;101416.22;4959705;29;1990;-48
2024/02/28 03:39:33;;;;;;;;;;;;;;;15.57;49.35;101422.00;4959335;29;1085;-45
2024/02/28 03:41:59;;;;;;;;;;;;;;;16.00;48.46;101426.63;4958350;29;1191;-46
2024/02/28 03:44:25;;;;;;;;;;;;;;;17.36;45.20;101428.06;4958893;29;1102;-44
2024/02/28 03:46:51;;;;;;;;;;;;;;;16.70;46.67;101424.19;4958961;29;1073;-44
2024/02/28 03:49:16;;;;;;;;;;;;;;;16.04;47.88;101432.59;4959539;29;1107;-45
2024/02/28 03:51:42;;;;;;;;;;;;;;;15.72;48.70;101430.88;4958668;28;1053;-45
2024/02/28 03:54:08;;;;;;;;;;;;;;;15.52;48.96;101432.91;4957453;29;1030;-42
2024/02/28 03:56:35;;;;;;;;;;;;;;;15.34;49.71;101433.94;4952163;29;1969;-42
2024/02/28 03:59:00;;;;;;;;;;;;;;;16.21;48.01;101433.41;4959112;29;1073;-48
2024/02/28 04:01:26;;;;;;;;;;;;;;;17.36;45.18;101430.72;4958749;29;1124;-44
2024/02/28 04:03:51;;;;;;;;;;;;;;;16.46;47.09;101427.44;4946267;29;1216;-47
2024/02/28 04:06:17;;;;;;;;;;;;;;;15.95;48.12;101430.47;4954514;29;1125;-46
2024/02/28 04:08:42;;;;;;;;;;;;;;;15.58;48.94;101425.53;4952211;29;1181;-44
2024/02/28 04:11:08;;;;;;;;;;;;;;;15.38;49.49;101425.72;4957140;29;1288;-42
2024/02/28 04:13:33;;;;;;;;;;;;;;;15.22;50.00;101428.41;4958809;29;1073;-48
2024/02/28 04:15:59;;;;;;;;;;;;;;;16.50;47.27;101420.13;4958134;29;1227;-43
2024/02/28 04:18:24;;;;;;;;;;;;;;;17.46;44.76;101429.19;4958134;29;1902;-48
2024/02/28 04:20:50;;;;;;;;;;;;;;;16.40;46.99;101428.66;4956609;29;1659;-48
2024/02/28 04:23:17;;;;;;;;;;;;;;;15.87;48.53;101422.97;4950593;29;1151;-50
2024/02/28 04:25:42;;;;;;;;;;;;;;;15.53;49.09;101431.94;4958208;29;934;-47
2024/02/28 04:28:08;;;;;;;;;;;;;;;15.42;49.45;101426.41;4958379;29;1006;-45
2024/02/28 04:30:34;;;;;;;;;;;;;;;16.42;47.44;101425.91;4957722;29;1062;-42
2024/02/28 04:32:59;;;;;;;;;;;;;;;17.35;44.90;101424.56;4953477;29;1208;-45
2024/02/28 04:35:25;;;;;;;;;;;;;;;16.30;47.17;101426.69;4957955;29;1041;-46
2024/02/28 04:37:50;;;;;;;;;;;;;;;15.87;48.23;101420.31;4958166;29;1987;-40
2024/02/28 04:40:16;;;;;;;;;;;;;;;15.53;48.81;101426.63;4958269;29;995;-44
2024/02/28 04:42:42;;;;;;;;;;;;;;;15.36;49.47;101432.94;4957150;29;2550;-45
2024/02/28 04:45:08;;;;;;;;;;;;;;;16.37;47.38;101435.97;4958086;29;1082;-42
2024/02/28 04:47:34;;;;;;;;;;;;;;;17.02;45.59;101425.75;4950239;29;1162;-42
2024/02/28 04:49:59;;;;;;;;;;;;;;;16.07;47.68;101439.53;4958073;29;1208;-47
2024/02/28 04:52:24;;;;;;;;;;;;;;;15.73;48.52;101443.19;4957148;29;1248;-44
2024/02/28 04:54:50;;;;;;;;;;;;;;;15.49;49.39;101456.06;4957243;29;1146;-48
2024/02/28 04:57:16;;;;;;;;;;;;;;;15.26;49.61;101458.25;4958028;28;1977;-45
2024/02/28 04:59:43;;;;;;;;;;;;;;;16.26;47.98;101465.84;4941046;29;1082;-48
2024/02/28 05:02:08;;;;;;;;;;;;;;;17.31;44.98;101462.94;4956923;29;1164;-42
2024/02/28 05:04:34;;;;;;;;;;;;;;;16.33;47.03;101466.31;4958113;29;1170;-44
2024/02/28 05:06:59;;;;;;;;;;;;;;;15.87;48.41;101473.38;4944150;29;1283;-44
2024/02/28 05:09:25;;;;;;;;;;;;;;;15.47;49.26;101469.41;4946304;29;1161;-45
2024/02/28 05:11:51;;;;;;;;;;;;;;;15.32;49.66;101468.50;4956377;29;1989;-47
2024/02/28 05:14:16;;;;;;;;;;;;;;;16.87;46.52;101472.75;4957493;29;1102;-45
2024/02/28 05:16:42;;;;;;;;;;;;;;;16.40;47.33;101470.28;4957746;29;1940;-43
2024/02/28 05:19:07;;;;;;;;;;;;;;;15.36;50.08;101470.03;4957537;29;1124;-43
2024/02/28 05:21:39;;;;;;;;;;;;;;;17.36;45.86;101468.84;4955562;29;1163;-42
2024/02/28 05:24:04;;;;;;;;;;;;;;;15.86;48.18;101472.53;4957656;29;1062;-45
2024/02/28 05:26:33;;;;;;;;;;;;;;;15.87;49.29;101479.53;4957604;29;1065;-42
2024/02/28 05:28:59;;;;;;;;;;;;;;;16.49;47.59;101482.16;4957429;29;1150;-45
2024/02/28 05:31:25;;;;;;;;;;;;;;;15.54;48.26;101483.19;4957592;29;1011;-44
2024/02/28 05:33:56;;;;;;;;;;;;;;;16.47;48.30;101482.25;4945824;29;1181;-45
2024/02/28 05:36:22;;;;;;;;;;;;;;;17.21;45.87;101483.97;4952979;29;1974;-40
2024/02/28 05:38:47;;;;;;;;;;;;;;;15.77;48.12;101489.84;4957736;28;1413;-44
2024/02/28 05:41:13;;;;;;;;;;;;;;;15.43;48.26;101479.34;4957271;29;1283;-45
2024/02/28 05:43:40;;;;;;;;;;;;;;;16.33;48.88;101490.22;4955543;29;2818;-46
2024/02/28 05:46:05;;;;;;;;;;;;;;;16.85;46.79;101490.63;4944337;29;1200;-43
2024/02/28 05:48:31;;;;;;;;;;;;;;;15.72;48.26;101494.53;4957392;29;1042;-45
2024/02/28 05:50:56;;;;;;;;;;;;;;;15.63;49.32;101495.91;4950950;29;1264;-47
2024/02/28 05:53:26;;;;;;;;;;;;;;;17.21;46.45;101491.94;4957548;29;1061;-44
2024/02/28 05:55:53;;;;;;;;;;;;;;;15.79;48.56;101493.25;4955981;28;947;-42
2024/02/28 05:58:19;;;;;;;;;;;;;;;15.70;49.60;101490.28;4944677;29;1906;-44
2024/02/28 06:00:44;;;;;;;;;;;;;;;16.51;47.76;101499.72;4950830;29;1134;-44
2024/02/28 06:03:10;;;;;;;;;;;;;;;15.71;48.50;101497.28;4951309;29;1074;-44
2024/02/28 06:05:35;;;;;;;;;;;;;;;15.40;47.75;101499.88;4950289;29;1146;-42
2024/02/28 06:08:01;;;;;;;;;;;;;;;17.05;47.57;101500.00;4951018;29;1014;-46
2024/02/28 06:10:27;;;;;;;;;;;;;;;16.34;47.84;101508.72;4952081;29;1516;-45
2024/02/28 06:12:52;;;;;;;;;;;;;;;15.68;48.53;101500.97;4956158;29;2401;-48
2024/02/28 06:15:18;;;;;;;;;;;;;;;15.60;48.72;101505.88;4950901;29;995;-46
2024/02/28 06:17:44;;;;;;;;;;;;;;;17.41;46.39;101512.88;4960689;29;1903;-42
2024/02/28 06:20:09;;;;;;;;;;;;;;;15.99;48.49;101514.28;4958788;29;1205;-43
2024/02/28 06:22:35;;;;;;;;;;;;;;;15.70;50.06;101509.69;4960323;29;1234;-45
2024/02/28 06:25:00;;;;;;;;;;;;;;;16.89;47.31;101508.06;4960073;29;1117;-42
2024/02/28 06:27:26;;;;;;;;;;;;;;;15.76;48.81;101512.00;4960655;29;1136;-43
2024/02/28 06:29:52;;;;;;;;;;;;;;;15.91;49.21;101506.75;4959889;29;1193;-43
2024/02/28 06:32:17;;;;;;;;;;;;;;;17.33;46.50;101508.06;4957183;29;1002;-42
2024/02/28 06:34:43;;;;;;;;;;;;;;;16.00;48.59;101508.03;4960200;29;1019;-43
2024/02/28 06:37:08;;;;;;;;;;;;;;;15.67;47.76;101508.06;4958835;29;1986;-40
2024/02/28 06:39:34;;;;;;;;;;;;;;;17.13;47.62;101513.69;4959964;29;994;-43
2024/02/28 06:41:59;;;;;;;;;;;;;;;16.73;47.62;101516.16;4956694;29;2139;-43
2024/02/28 06:44:25;;;;;;;;;;;;;;;15.92;48.54;101519.06;4951810;29;1030;-46
2024/02/28 06:46:50;;;;;;;;;;;;;;;15.61;48.02;101511.09;4959853;29;1106;-45
2024/02/28 06:49:16;;;;;;;;;;;;;;;16.55;48.85;101523.44;4960223;29;1042;-42
2024/02/28 06:51:43;;;;;;;;;;;;;;;17.29;46.70;101525.16;4959745;29;1100;-42
2024/02/28 06:54:10;;;;;;;;;;;;;;;16.16;48.31;101526.59;4958745;29;1209;-45
2024/02/28 06:56:36;;;;;;;;;;;;;;;15.90;49.34;101528.91;4953989;29;1906;-41
2024/02/28 06:59:01;;;;;;;;;;;;;;;17.58;46.13;101530.41;4959710;29;1142;-46
2024/02/28 07:01:27;;;;;;;;;;;;;;;16.22;48.28;101533.31;4959066;29;1055;-45
2024/02/28 07:03:52;;;;;;;;;;;;;;;17.69;46.47;101538.56;4959327;29;1154;-48
2024/02/28 07:06:18;;;;;;;;;;;;;;;17.09;46.88;101541.44;4942300;29;1118;-56
2024/02/28 07:08:43;;;;;;;;;;;;;;;16.23;47.80;101540.34;4958400;29;845;-49
2024/02/28 07:11:15;;;;;;;;;;;;;;;15.96;47.90;101541.84;4958054;29;1102;-42
2024/02/28 07:13:40;;;;;;;;;;;;;;;15.72;47.13;101533.47;4959092;29;2188;-41
2024/02/28 07:16:06;;;;;;;;;;;;;;;15.61;46.76;101531.44;4959320;29;1054;-45
2024/02/28 07:18:32;;;;;;;;;;;;;;;16.43;47.93;101531.22;4959334;28;1959;-46
2024/02/28 07:20:57;;;;;;;;;;;;;;;16.68;47.75;101527.06;4958053;28;1005;-44
2024/02/28 07:23:23;;;;;;;;;;;;;;;15.88;48.22;101526.34;4958322;29;1155;-47
2024/02/28 07:25:48;;;;;;;;;;;;;;;15.88;48.47;101526.34;4957908;28;1336;-43
2024/02/28 07:28:14;;;;;;;;;;;;;;;17.73;46.28;101526.72;4959083;29;1074;-44
2024/02/28 07:30:39;;;;;;;;;;;;;;;16.31;48.31;101534.59;4957432;29;1185;-44
2024/02/28 07:33:05;;;;;;;;;;;;;;;15.81;48.00;101530.31;4954692;29;1515;-45
2024/02/28 07:35:31;;;;;;;;;;;;;;;15.73;47.35;101522.78;4958623;29;1110;-46
2024/02/28 07:37:56;;;;;;;;;;;;;;;16.55;48.34;101526.09;4958870;28;1978;-45
2024/02/28 07:40:22;;;;;;;;;;;;;;;16.65;47.99;101524.56;4958831;29;1006;-43
2024/02/28 07:42:47;;;;;;;;;;;;;;;15.84;48.62;101521.31;4957573;29;2013;-47
2024/02/28 07:45:13;;;;;;;;;;;;;;;15.67;47.74;101520.47;4950999;29;1014;-46
2024/02/28 07:47:40;;;;;;;;;;;;;;;15.43;47.15;101519.13;4955206;29;1296;-49
2024/02/28 07:50:06;;;;;;;;;;;;;;;17.27;47.43;101530.56;4953745;29;1403;-47
2024/02/28 07:52:34;;;;;;;;;;;;;;;17.11;47.24;101536.00;4957324;29;985;-45
2024/02/28 07:55:01;;;;;;;;;;;;;;;16.06;48.57;101525.41;4958335;29;1138;-50
2024/02/28 07:57:26;;;;;;;;;;;;;;;15.75;47.68;101528.84;4948183;29;1968;-46
2024/02/28 07:59:52;;;;;;;;;;;;;;;15.90;48.55;101524.47;4955976;29;1047;-47
2024/02/28 08:02:19;;;;;;;;;;;;;;;17.69;46.19;101522.59;4958546;29;1018;-46
2024/02/28 08:04:45;;;;;;;;;;;;;;;16.31;48.21;101529.28;4957853;29;1109;-48
2024/02/28 08:07:10;;;;;;;;;;;;;;;15.78;48.39;101517.22;4951077;29;1283;-47
2024/02/28 08:09:36;;;;;;;;;;;;;;;15.69;46.92;101523.03;4952941;29;1235;-45
2024/02/28 08:12:02;;;;;;;;;;;;;;;15.52;46.87;101523.06;4954000;29;2545;-48
2024/02/28 08:14:27;;;;;;;;;;;;;;;16.25;48.09;101523.38;4957123;29;1501;-45
2024/02/28 08:16:53;;;;;;;;;;;;;;;16.99;47.47;101533.13;4955658;29;1898;-50
2024/02/28 08:19:18;;;;;;;;;;;;;;;15.92;48.88;101532.34;4958112;29;1105;-44
2024/02/28 08:21:44;;;;;;;;;;;;;;;15.66;48.82;101527.56;4956806;29;981;-49
2024/02/28 08:24:09;;;;;;;;;;;;;;;17.52;46.66;101520.19;4958287;29;1045;-41
2024/02/28 08:26:35;;;;;;;;;;;;;;;16.07;48.32;101522.66;4957383;29;1073;-44
2024/02/28 08:29:01;;;;;;;;;;;;;;;15.76;47.85;101529.72;4958121;28;1140;-43
2024/02/28 08:31:27;;;;;;;;;;;;;;;15.57;47.18;101524.56;4957428;29;1162;-47
2024/02/28 08:33:53;;;;;;;;;;;;;;;15.49;46.74;101523.22;4957758;28;1147;-46
2024/02/28 08:36:18;;;;;;;;;;;;;;;16.72;48.13;101531.22;4957786;29;1906;-45
2024/02/28 08:38:44;;;;;;;;;;;;;;;17.85;45.83;101533.06;4952537;28;1359;-47
2024/02/28 08:41:10;;;;;;;;;;;;;;;16.23;48.29;101529.72;4953849;29;1292;-48
2024/02/28 08:43:39;;;;;;;;;;;;;;;15.94;47.93;101533.09;4957769;29;2020;-46
2024/02/28 08:46:05;;;;;;;;;;;;;;;15.69;47.67;101533.66;4953997;29;1003;-46
2024/02/28 08:48:30;;;;;;;;;;;;;;;16.93;48.04;101541.50;4956970;29;1128;-44
2024/02/28 08:50:56;;;;;;;;;;;;;;;17.71;46.11;101528.66;4957095;29;1182;-47
2024/02/28 08:53:21;;;;;;;;;;;;;;;16.34;48.21;101524.63;4957433;29;1209;-48
2024/02/28 08:55:47;;;;;;;;;;;;;;;15.95;47.96;101533.97;4957722;29;1212;-48
2024/02/28 08:58:12;;;;;;;;;;;;;;;17.51;47.20;101532.63;4951612;29;1993;-49
2024/02/28 09:00:37;;;;;;;;;;;;;;;16.35;48.29;101533.47;4945727;29;1232;-49
2024/02/28 09:03:04;;;;;;;;;;;;;;;15.99;48.50;101539.03;4957896;29;1099;-45
2024/02/28 09:05:29;;;;;;;;;;;;;;;17.65;46.43;101531.72;4956892;29;1069;-44
2024/02/28 09:07:56;;;;;;;;;;;;;;;16.27;48.32;101534.75;4957583;29;1166;-48
2024/02/28 09:10:23;;;;;;;;;;;;;;;15.99;47.82;101543.47;4947194;29;1252;-47
2024/02/28 09:12:49;;;;;;;;;;;;;;;15.82;47.16;101536.44;4957352;29;1957;-46
2024/02/28 09:15:14;;;;;;;;;;;;;;;15.61;46.96;101537.59;4957522;29;1100;-46
2024/02/28 09:17:40;;;;;;;;;;;;;;;17.26;47.84;101544.81;4958250;29;1926;-52
2024/02/28 09:20:06;;;;;;;;;;;;;;;16.26;48.54;101543.69;4945247;29;961;-48
2024/02/28 09:22:32;;;;;;;;;;;;;;;15.85;47.82;101539.78;4954612;28;1128;-45
2024/02/28 09:24:57;;;;;;;;;;;;;;;17.27;47.50;101538.53;4957697;29;1149;-48
2024/02/28 09:27:24;;;;;;;;;;;;;;;16.33;48.62;101536.19;4956456;29;1093;-48
2024/02/28 09:29:50;;;;;;;;;;;;;;;15.89;48.22;101540.47;4957111;29;1014;-46
2024/02/28 09:32:15;;;;;;;;;;;;;;;15.71;47.35;101537.06;4957238;29;1126;-49
2024/02/28 09:34:41;;;;;;;;;;;;;;;16.39;48.58;101540.28;4935748;29;922;-46
2024/02/28 09:37:06;;;;;;;;;;;;;;;17.84;45.95;101538.50;4948941;29;1920;-48
2024/02/28 09:39:32;;;;;;;;;;;;;;;16.38;48.48;101547.41;4951104;29;1378;-46
2024/02/28 09:41:58;;;;;;;;;;;;;;;15.96;47.76;101546.28;4952247;29;1890;-48
2024/02/28 09:44:23;;;;;;;;;;;;;;;17.29;47.58;101549.94;4954509;29;1169;-48
2024/02/28 09:46:52;;;;;;;;;;;;;;;16.40;48.19;101545.50;4956139;29;1030;-48
2024/02/28 09:49:17;;;;;;;;;;;;;;;15.82;47.87;101539.09;4958760;28;1284;-47
2024/02/28 09:51:43;;;;;;;;;;;;;;;16.26;48.56;101540.16;4957319;29;1396;-46
2024/02/28 09:54:08;;;;;;;;;;;;;;;17.10;46.96;101545.78;4935329;29;1138;-44
2024/02/28 09:56:34;;;;;;;;;;;;;;;16.08;48.47;101544.75;4936337;29;1990;-46
2024/02/28 09:59:02;;;;;;;;;;;;;;;15.92;47.36;101537.63;4930092;29;1022;-44
2024/02/28 10:01:29;;;;;;;;;;;;;;;16.71;48.17;101541.94;4936859;29;1334;-46
2024/02/28 10:03:54;;;;;;;;;;;;;;;17.61;46.10;101532.88;4941493;29;1066;-51
2024/02/28 10:06:20;;;;;;;;;;;;;;;16.34;47.96;101535.25;4942035;29;1037;-44
2024/02/28 10:08:48;;;;;;;;;;;;;;;16.02;47.31;101533.56;4934360;29;1034;-49
2024/02/28 10:11:33;;;;;;;;;;;;;;;15.77;47.07;101534.06;4941056;29;1331;-47
2024/02/28 10:13:59;;;;;;;;;;;;;;;15.61;46.79;101528.78;4937302;29;2378;-53
2024/02/28 10:16:24;;;;;;;;;;;;;;;17.13;47.37;101537.59;4941011;29;1988;-48
2024/02/28 10:18:50;;;;;;;;;;;;;;;16.91;47.62;101535.41;4939800;29;1228;-46
2024/02/28 10:21:15;;;;;;;;;;;;;;;16.08;48.47;101524.34;4940156;29;1141;-44
2024/02/28 10:23:41;;;;;;;;;;;;;;;15.87;47.81;101518.47;4939535;29;1280;-44
2024/02/28 10:26:10;;;;;;;;;;;;;;;15.63;47.40;101525.09;4941076;29;1101;-47
2024/02/28 10:28:39;;;;;;;;;;;;;;;15.48;46.81;101520.66;4938911;29;1086;-46
2024/02/28 10:31:08;;;;;;;;;;;;;;;17.00;47.73;101520.69;4940609;29;1184;-45
2024/02/28 10:33:35;;;;;;;;;;;;;;;16.83;47.64;101519.09;4939485;29;1160;-49
2024/02/28 10:36:02;;;;;;;;;;;;;;;16.11;48.38;101508.28;4940789;29;1145;-44
2024/02/28 10:38:27;;;;;;;;;;;;;;;15.74;47.92;101518.31;4940976;29;1976;-45
2024/02/28 10:40:53;;;;;;;;;;;;;;;16.12;48.24;101514.41;4941175;29;1065;-49
2024/02/28 10:43:19;;;;;;;;;;;;;;;17.16;47.02;101509.13;4940950;29;2254;-48
2024/02/28 10:45:46;;;;;;;;;;;;;;;16.04;48.48;101509.56;4936132;29;1026;-45
2024/02/28 10:48:11;;;;;;;;;;;;;;;15.74;47.61;101510.38;4939800;29;1002;-47
2024/02/28 10:50:37;;;;;;;;;;;;;;;15.64;47.57;101505.59;4939516;29;1034;-44
2024/02/28 10:53:03;;;;;;;;;;;;;;;17.34;46.70;101501.78;4940713;29;1065;-47
2024/02/28 10:55:35;;;;;;;;;;;;;;;16.22;48.25;101504.09;4940023;29;1327;-51
2024/02/28 10:58:07;;;;;;;;;;;;;;;15.74;48.06;101497.97;4930605;29;1911;-45
2024/02/28 11:00:32;;;;;;;;;;;;;;;17.60;46.72;101496.59;4938196;29;1241;-48
2024/02/28 11:02:58;;;;;;;;;;;;;;;16.46;47.95;101500.94;4940530;29;1360;-45
2024/02/28 11:05:23;;;;;;;;;;;;;;;15.87;47.91;101499.91;4940027;29;993;-46
2024/02/28 11:07:51;;;;;;;;;;;;;;;15.72;47.37;101493.69;4940486;29;1193;-44
2024/02/28 11:10:16;;;;;;;;;;;;;;;16.89;47.84;101492.13;4937636;29;1080;-45
2024/02/28 11:12:42;;;;;;;;;;;;;;;16.79;47.67;101491.00;4940155;29;2507;-45
2024/02/28 11:15:15;;;;;;;;;;;;;;;16.01;48.13;101485.88;4939722;29;1134;-48
2024/02/28 11:17:40;;;;;;;;;;;;;;;15.81;47.47;101490.50;4940226;29;1908;-47
2024/02/28 11:20:12;;;;;;;;;;;;;;;16.77;48.49;101493.75;4939591;29;1269;-47
2024/02/28 11:22:39;;;;;;;;;;;;;;;16.60;47.82;101490.31;4938683;29;1177;-50
2024/02/28 11:25:05;;;;;;;;;;;;;;;16.04;48.16;101485.69;4939841;29;1299;-49
2024/02/28 11:27:31;;;;;;;;;;;;;;;15.74;47.47;101478.53;4939772;29;1038;-45
2024/02/28 11:29:56;;;;;;;;;;;;;;;17.56;46.95;101484.44;4939766;29;1066;-51
2024/02/28 11:32:24;;;;;;;;;;;;;;;16.40;48.12;101481.78;4940128;29;1109;-49
2024/02/28 11:34:51;;;;;;;;;;;;;;;15.87;47.81;101482.19;4929461;29;1081;-50
2024/02/28 11:37:17;;;;;;;;;;;;;;;16.19;48.54;101475.09;4936536;29;1907;-47
2024/02/28 11:39:52;;;;;;;;;;;;;;;17.46;46.60;101469.09;4940021;29;1062;-49
2024/02/28 11:42:18;;;;;;;;;;;;;;;16.31;48.11;101478.81;4939417;29;2080;-50
2024/02/28 11:44:43;;;;;;;;;;;;;;;15.91;47.57;101466.94;4939556;29;999;-49
2024/02/28 11:47:12;;;;;;;;;;;;;;;15.73;46.85;101466.22;4935635;29;908;-46
2024/02/28 11:49:37;;;;;;;;;;;;;;;16.02;48.01;101461.91;4940017;29;1133;-45
2024/02/28 11:52:04;;;;;;;;;;;;;;;16.97;47.24;101457.94;4939810;29;1030;-48
2024/02/28 11:54:29;;;;;;;;;;;;;;;16.05;48.46;101462.66;4950678;29;1264;-44
2024/02/28 11:56:55;;;;;;;;;;;;;;;15.78;47.53;101462.34;4955651;29;1927;-45
2024/02/28 11:59:20;;;;;;;;;;;;;;;15.61;46.95;101451.88;4951908;29;1280;-51
2024/02/28 12:01:49;;;;;;;;;;;;;;;17.32;47.03;101456.66;4956964;29;1193;-49
2024/02/28 12:04:16;;;;;;;;;;;;;;;16.53;48.02;101460.63;4958981;29;1244;-42
2024/02/28 12:06:41;;;;;;;;;;;;;;;15.99;48.08;101459.44;4958335;29;1316;-46
2024/02/28 12:09:10;;;;;;;;;;;;;;;15.70;47.29;101448.69;4958498;29;1374;-46
2024/02/28 12:11:36;;;;;;;;;;;;;;;15.63;46.45;101457.94;4957364;28;1245;-43
2024/02/28 12:14:08;;;;;;;;;;;;;;;15.49;46.13;101454.28;4958471;29;1085;-46
2024/02/28 12:16:34;;;;;;;;;;;;;;;17.04;47.64;101454.91;4957147;29;1976;-43
2024/02/28 12:19:00;;;;;;;;;;;;;;;16.22;48.28;101453.66;4956964;29;1426;-43
2024/02/28 12:21:25;;;;;;;;;;;;;;;16.35;49.17;101459.13;4945000;29;1077;-46
2024/02/28 12:23:51;;;;;;;;;;;;;;;17.39;46.46;101459.78;4956797;29;1308;-46
2024/02/28 12:26:17;;;;;;;;;;;;;;;16.22;48.41;101457.19;4957757;29;1126;-42
2024/02/28 12:28:43;;;;;;;;;;;;;;;15.88;48.14;101457.34;4957318;29;1362;-46
2024/02/28 12:31:11;;;;;;;;;;;;;;;15.82;47.80;101452.41;4957838;29;1276;-45
2024/02/28 12:33:37;;;;;;;;;;;;;;;17.00;47.43;101452.44;4957144;29;1116;-47
2024/02/28 12:36:03;;;;;;;;;;;;;;;16.02;48.66;101445.09;4951479;29;923;-43
2024/02/28 12:38:29;;;;;;;;;;;;;;;17.11;47.96;101451.81;4957558;29;1903;-44
2024/02/28 12:40:55;;;;;;;;;;;;;;;17.00;47.46;101451.56;4958212;29;1085;-46